sensor_id;sensor_type;location;lat;lon;timestamp;P1;durP1;ratioP1;P2;durP2;ratioP2
76656;SDS011;65576;47.714;9.414;2023-08-21T00:00:28;5.47;;;4.30;;
76656;SDS011;65576;47.714;9.414;2023-08-21T00:02:53;5.38;;;4.15;;
76656;SDS011;65576;47.714;9.414;2023-08-21T00:05:18;8.88;;;3.97;;
76656;SDS011;65576;47.714;9.414;2023-08-21T00:07:43;10.00;;;4.07;;
76656;SDS011;65576;47.714;9.414;2023-08-21T00:10:09;8.07;;;4.47;;
76656;SDS011;65576;47.714;9.414;2023-08-21T00:12:37;5.70;;;4.20;;
76656;SDS011;65576;47.714;9.414;2023-08-21T00:15:03;6.90;;;4.43;;
76656;SDS011;65576;47.714;9.414;2023-08-21T00:17:28;7.28;;;4.30;;
76656;SDS011;65576;47.714;9.414;2023-08-21T00:19:54;8.50;;;4.38;;
76656;SDS011;65576;47.714;9.414;2023-08-21T00:22:19;7.25;;;4.82;;
76656;SDS011;65576;47.714;9.414;2023-08-21T00:24:44;6.80;;;4.22;;
76656;SDS011;65576;47.714;9.414;2023-08-21T00:27:10;6.93;;;4.78;;
76656;SDS011;65576;47.714;9.414;2023-08-21T00:29:35;6.03;;;4.28;;
76656;SDS011;65576;47.714;9.414;2023-08-21T00:32:01;6.57;;;4.68;;
76656;SDS011;65576;47.714;9.414;2023-08-21T00:34:26;7.78;;;4.53;;
76656;SDS011;65576;47.714;9.414;2023-08-21T00:36:51;9.55;;;5.38;;
76656;SDS011;65576;47.714;9.414;2023-08-21T00:39:16;6.50;;;3.90;;
76656;SDS011;65576;47.714;9.414;2023-08-21T00:41:42;6.43;;;4.40;;
76656;SDS011;65576;47.714;9.414;2023-08-21T00:44:07;6.18;;;4.57;;
76656;SDS011;65576;47.714;9.414;2023-08-21T00:46:32;6.70;;;4.80;;
76656;SDS011;65576;47.714;9.414;2023-08-21T00:48:58;7.20;;;4.97;;
76656;SDS011;65576;47.714;9.414;2023-08-21T00:51:23;9.15;;;4.88;;
76656;SDS011;65576;47.714;9.414;2023-08-21T00:53:49;7.05;;;5.03;;
76656;SDS011;65576;47.714;9.414;2023-08-21T00:56:14;9.75;;;5.35;;
76656;SDS011;65576;47.714;9.414;2023-08-21T00:58:40;9.48;;;5.15;;
76656;SDS011;65576;47.714;9.414;2023-08-21T01:01:05;6.28;;;4.47;;
76656;SDS011;65576;47.714;9.414;2023-08-21T01:03:31;8.48;;;5.15;;
76656;SDS011;65576;47.714;9.414;2023-08-21T01:05:56;8.02;;;4.97;;
76656;SDS011;65576;47.714;9.414;2023-08-21T01:08:28;9.07;;;5.18;;
76656;SDS011;65576;47.714;9.414;2023-08-21T01:14:17;8.02;;;5.03;;
76656;SDS011;65576;47.714;9.414;2023-08-21T01:16:25;7.28;;;5.10;;
76656;SDS011;65576;47.714;9.414;2023-08-21T01:18:51;5.20;;;4.57;;
76656;SDS011;65576;47.714;9.414;2023-08-21T01:21:18;7.82;;;4.75;;
76656;SDS011;65576;47.714;9.414;2023-08-21T01:23:43;11.05;;;5.03;;
76656;SDS011;65576;47.714;9.414;2023-08-21T01:26:09;7.70;;;5.10;;
76656;SDS011;65576;47.714;9.414;2023-08-21T01:28:34;8.77;;;5.55;;
76656;SDS011;65576;47.714;9.414;2023-08-21T01:31:05;8.15;;;5.45;;
76656;SDS011;65576;47.714;9.414;2023-08-21T01:33:34;11.13;;;4.95;;
76656;SDS011;65576;47.714;9.414;2023-08-21T01:36:02;6.45;;;5.10;;
76656;SDS011;65576;47.714;9.414;2023-08-21T01:38:34;8.05;;;5.78;;
76656;SDS011;65576;47.714;9.414;2023-08-21T01:41:00;6.45;;;5.22;;
76656;SDS011;65576;47.714;9.414;2023-08-21T01:43:25;7.65;;;5.35;;
76656;SDS011;65576;47.714;9.414;2023-08-21T01:45:51;12.23;;;5.32;;
76656;SDS011;65576;47.714;9.414;2023-08-21T01:48:16;8.52;;;5.80;;
76656;SDS011;65576;47.714;9.414;2023-08-21T01:50:41;6.60;;;5.25;;
76656;SDS011;65576;47.714;9.414;2023-08-21T01:53:07;7.30;;;5.32;;
76656;SDS011;65576;47.714;9.414;2023-08-21T01:55:32;6.97;;;4.97;;
76656;SDS011;65576;47.714;9.414;2023-08-21T01:57:58;7.47;;;5.15;;
76656;SDS011;65576;47.714;9.414;2023-08-21T02:00:23;9.57;;;5.68;;
76656;SDS011;65576;47.714;9.414;2023-08-21T02:02:48;9.80;;;5.72;;
76656;SDS011;65576;47.714;9.414;2023-08-21T02:05:13;8.27;;;5.32;;
76656;SDS011;65576;47.714;9.414;2023-08-21T02:07:39;8.88;;;6.00;;
76656;SDS011;65576;47.714;9.414;2023-08-21T02:10:04;11.70;;;5.57;;
76656;SDS011;65576;47.714;9.414;2023-08-21T02:12:30;8.05;;;5.20;;
76656;SDS011;65576;47.714;9.414;2023-08-21T02:14:55;7.93;;;5.63;;
76656;SDS011;65576;47.714;9.414;2023-08-21T02:17:20;8.10;;;5.75;;
76656;SDS011;65576;47.714;9.414;2023-08-21T02:19:46;9.02;;;5.43;;
76656;SDS011;65576;47.714;9.414;2023-08-21T02:22:11;8.38;;;5.80;;
76656;SDS011;65576;47.714;9.414;2023-08-21T02:24:36;10.75;;;5.47;;
76656;SDS011;65576;47.714;9.414;2023-08-21T02:27:03;7.53;;;5.20;;
76656;SDS011;65576;47.714;9.414;2023-08-21T02:29:28;9.55;;;5.97;;
76656;SDS011;65576;47.714;9.414;2023-08-21T02:31:53;11.30;;;5.55;;
76656;SDS011;65576;47.714;9.414;2023-08-21T02:34:19;6.78;;;4.90;;
76656;SDS011;65576;47.714;9.414;2023-08-21T02:36:44;7.43;;;5.35;;
76656;SDS011;65576;47.714;9.414;2023-08-21T02:39:09;8.93;;;5.38;;
76656;SDS011;65576;47.714;9.414;2023-08-21T02:41:35;9.40;;;5.40;;
76656;SDS011;65576;47.714;9.414;2023-08-21T02:44:00;10.57;;;5.55;;
76656;SDS011;65576;47.714;9.414;2023-08-21T02:46:25;9.70;;;6.28;;
76656;SDS011;65576;47.714;9.414;2023-08-21T02:48:51;11.15;;;5.57;;
76656;SDS011;65576;47.714;9.414;2023-08-21T02:51:16;8.52;;;5.38;;
76656;SDS011;65576;47.714;9.414;2023-08-21T02:53:41;10.00;;;5.50;;
76656;SDS011;65576;47.714;9.414;2023-08-21T02:56:07;10.05;;;5.75;;
76656;SDS011;65576;47.714;9.414;2023-08-21T02:58:32;13.40;;;5.32;;
76656;SDS011;65576;47.714;9.414;2023-08-21T03:00:58;9.38;;;5.63;;
76656;SDS011;65576;47.714;9.414;2023-08-21T03:03:23;9.02;;;5.63;;
76656;SDS011;65576;47.714;9.414;2023-08-21T03:05:48;7.57;;;5.82;;
76656;SDS011;65576;47.714;9.414;2023-08-21T03:08:14;8.52;;;5.35;;
76656;SDS011;65576;47.714;9.414;2023-08-21T03:10:39;6.90;;;4.97;;
76656;SDS011;65576;47.714;9.414;2023-08-21T03:13:04;12.45;;;5.70;;
76656;SDS011;65576;47.714;9.414;2023-08-21T03:15:29;9.10;;;5.10;;
76656;SDS011;65576;47.714;9.414;2023-08-21T03:17:55;8.25;;;5.57;;
76656;SDS011;65576;47.714;9.414;2023-08-21T03:20:20;7.10;;;5.38;;
76656;SDS011;65576;47.714;9.414;2023-08-21T03:22:46;8.27;;;5.00;;
76656;SDS011;65576;47.714;9.414;2023-08-21T03:25:11;8.40;;;4.97;;
76656;SDS011;65576;47.714;9.414;2023-08-21T03:27:37;7.72;;;4.65;;
76656;SDS011;65576;47.714;9.414;2023-08-21T03:30:04;7.35;;;5.45;;
76656;SDS011;65576;47.714;9.414;2023-08-21T03:32:31;6.68;;;5.22;;
76656;SDS011;65576;47.714;9.414;2023-08-21T03:34:57;10.18;;;5.65;;
76656;SDS011;65576;47.714;9.414;2023-08-21T03:37:22;7.72;;;5.68;;
76656;SDS011;65576;47.714;9.414;2023-08-21T03:39:47;8.13;;;6.03;;
76656;SDS011;65576;47.714;9.414;2023-08-21T03:42:13;6.55;;;5.20;;
76656;SDS011;65576;47.714;9.414;2023-08-21T03:44:39;9.07;;;6.18;;
76656;SDS011;65576;47.714;9.414;2023-08-21T03:47:04;12.95;;;5.38;;
76656;SDS011;65576;47.714;9.414;2023-08-21T03:49:29;7.63;;;5.68;;
76656;SDS011;65576;47.714;9.414;2023-08-21T03:51:55;7.32;;;5.00;;
76656;SDS011;65576;47.714;9.414;2023-08-21T03:54:20;8.43;;;5.50;;
76656;SDS011;65576;47.714;9.414;2023-08-21T03:56:45;6.05;;;4.90;;
76656;SDS011;65576;47.714;9.414;2023-08-21T03:59:11;6.13;;;4.95;;
76656;SDS011;65576;47.714;9.414;2023-08-21T04:01:36;9.10;;;5.75;;
76656;SDS011;65576;47.714;9.414;2023-08-21T04:04:01;9.25;;;6.00;;
76656;SDS011;65576;47.714;9.414;2023-08-21T04:06:27;7.47;;;5.70;;
76656;SDS011;65576;47.714;9.414;2023-08-21T04:08:52;6.90;;;5.85;;
76656;SDS011;65576;47.714;9.414;2023-08-21T04:11:17;8.82;;;5.80;;
76656;SDS011;65576;47.714;9.414;2023-08-21T04:13:43;10.90;;;6.10;;
76656;SDS011;65576;47.714;9.414;2023-08-21T04:16:08;13.85;;;7.13;;
76656;SDS011;65576;47.714;9.414;2023-08-21T04:18:34;9.13;;;5.50;;
76656;SDS011;65576;47.714;9.414;2023-08-21T04:21:01;7.90;;;5.72;;
76656;SDS011;65576;47.714;9.414;2023-08-21T04:23:27;7.18;;;5.45;;
76656;SDS011;65576;47.714;9.414;2023-08-21T04:25:52;9.90;;;5.70;;
76656;SDS011;65576;47.714;9.414;2023-08-21T04:28:17;9.13;;;5.18;;
76656;SDS011;65576;47.714;9.414;2023-08-21T04:30:43;10.35;;;5.53;;
76656;SDS011;65576;47.714;9.414;2023-08-21T04:33:08;10.27;;;5.40;;
76656;SDS011;65576;47.714;9.414;2023-08-21T04:35:37;9.90;;;5.75;;
76656;SDS011;65576;47.714;9.414;2023-08-21T04:38:03;9.10;;;5.68;;
76656;SDS011;65576;47.714;9.414;2023-08-21T04:40:29;8.07;;;5.40;;
76656;SDS011;65576;47.714;9.414;2023-08-21T04:42:54;15.23;;;5.38;;
76656;SDS011;65576;47.714;9.414;2023-08-21T04:45:19;13.18;;;6.10;;
76656;SDS011;65576;47.714;9.414;2023-08-21T04:47:44;8.30;;;6.13;;
76656;SDS011;65576;47.714;9.414;2023-08-21T04:50:11;9.07;;;5.78;;
76656;SDS011;65576;47.714;9.414;2023-08-21T04:52:37;12.25;;;5.50;;
76656;SDS011;65576;47.714;9.414;2023-08-21T04:55:02;11.18;;;5.88;;
76656;SDS011;65576;47.714;9.414;2023-08-21T04:57:28;6.68;;;5.55;;
76656;SDS011;65576;47.714;9.414;2023-08-21T04:59:53;6.50;;;5.43;;
76656;SDS011;65576;47.714;9.414;2023-08-21T05:02:18;11.40;;;6.63;;
76656;SDS011;65576;47.714;9.414;2023-08-21T05:04:43;7.50;;;6.03;;
76656;SDS011;65576;47.714;9.414;2023-08-21T05:07:09;8.07;;;6.05;;
76656;SDS011;65576;47.714;9.414;2023-08-21T05:09:34;6.88;;;5.50;;
76656;SDS011;65576;47.714;9.414;2023-08-21T05:11:59;9.23;;;5.43;;
76656;SDS011;65576;47.714;9.414;2023-08-21T05:14:25;10.13;;;5.63;;
76656;SDS011;65576;47.714;9.414;2023-08-21T05:16:50;8.90;;;5.60;;
76656;SDS011;65576;47.714;9.414;2023-08-21T05:19:16;8.27;;;6.15;;
76656;SDS011;65576;47.714;9.414;2023-08-21T05:21:41;10.05;;;6.30;;
76656;SDS011;65576;47.714;9.414;2023-08-21T05:24:07;10.13;;;5.45;;
76656;SDS011;65576;47.714;9.414;2023-08-21T05:26:32;7.22;;;5.72;;
76656;SDS011;65576;47.714;9.414;2023-08-21T05:28:57;8.48;;;5.85;;
76656;SDS011;65576;47.714;9.414;2023-08-21T05:31:23;14.32;;;6.05;;
76656;SDS011;65576;47.714;9.414;2023-08-21T05:33:48;9.68;;;6.15;;
76656;SDS011;65576;47.714;9.414;2023-08-21T05:36:13;7.38;;;5.05;;
76656;SDS011;65576;47.714;9.414;2023-08-21T05:38:39;9.75;;;6.32;;
76656;SDS011;65576;47.714;9.414;2023-08-21T05:41:04;7.93;;;6.18;;
76656;SDS011;65576;47.714;9.414;2023-08-21T05:43:29;13.45;;;6.05;;
76656;SDS011;65576;47.714;9.414;2023-08-21T05:45:55;8.30;;;5.78;;
76656;SDS011;65576;47.714;9.414;2023-08-21T05:48:20;10.02;;;6.03;;
76656;SDS011;65576;47.714;9.414;2023-08-21T05:50:50;13.18;;;7.20;;
76656;SDS011;65576;47.714;9.414;2023-08-21T05:53:18;10.85;;;6.97;;
76656;SDS011;65576;47.714;9.414;2023-08-21T05:55:44;10.40;;;6.43;;
76656;SDS011;65576;47.714;9.414;2023-08-21T05:58:09;10.13;;;6.38;;
76656;SDS011;65576;47.714;9.414;2023-08-21T06:00:35;10.07;;;6.85;;
76656;SDS011;65576;47.714;9.414;2023-08-21T06:03:01;14.30;;;6.57;;
76656;SDS011;65576;47.714;9.414;2023-08-21T06:05:26;7.45;;;6.13;;
76656;SDS011;65576;47.714;9.414;2023-08-21T06:07:52;9.20;;;6.88;;
76656;SDS011;65576;47.714;9.414;2023-08-21T06:10:17;11.40;;;6.15;;
76656;SDS011;65576;47.714;9.414;2023-08-21T06:12:43;11.38;;;6.72;;
76656;SDS011;65576;47.714;9.414;2023-08-21T06:15:08;11.95;;;6.93;;
76656;SDS011;65576;47.714;9.414;2023-08-21T06:17:34;6.95;;;5.93;;
76656;SDS011;65576;47.714;9.414;2023-08-21T06:20:00;10.40;;;6.38;;
76656;SDS011;65576;47.714;9.414;2023-08-21T06:22:25;9.23;;;5.80;;
76656;SDS011;65576;47.714;9.414;2023-08-21T06:24:51;8.73;;;6.03;;
76656;SDS011;65576;47.714;9.414;2023-08-21T06:27:16;9.13;;;6.07;;
76656;SDS011;65576;47.714;9.414;2023-08-21T06:29:41;11.55;;;5.65;;
76656;SDS011;65576;47.714;9.414;2023-08-21T06:32:07;7.88;;;5.65;;
76656;SDS011;65576;47.714;9.414;2023-08-21T06:34:32;7.20;;;5.70;;
76656;SDS011;65576;47.714;9.414;2023-08-21T06:36:57;6.78;;;5.70;;
76656;SDS011;65576;47.714;9.414;2023-08-21T06:39:23;12.18;;;6.75;;
76656;SDS011;65576;47.714;9.414;2023-08-21T06:41:48;10.90;;;5.88;;
76656;SDS011;65576;47.714;9.414;2023-08-21T06:44:13;7.93;;;5.75;;
76656;SDS011;65576;47.714;9.414;2023-08-21T06:46:39;8.15;;;6.28;;
76656;SDS011;65576;47.714;9.414;2023-08-21T06:49:04;8.38;;;5.65;;
76656;SDS011;65576;47.714;9.414;2023-08-21T06:51:29;7.10;;;5.70;;
76656;SDS011;65576;47.714;9.414;2023-08-21T06:53:55;7.97;;;5.75;;
76656;SDS011;65576;47.714;9.414;2023-08-21T06:56:20;10.93;;;5.78;;
76656;SDS011;65576;47.714;9.414;2023-08-21T06:58:45;8.75;;;5.70;;
76656;SDS011;65576;47.714;9.414;2023-08-21T07:01:11;6.43;;;5.22;;
76656;SDS011;65576;47.714;9.414;2023-08-21T07:03:36;7.80;;;5.72;;
76656;SDS011;65576;47.714;9.414;2023-08-21T07:06:01;11.93;;;5.57;;
76656;SDS011;65576;47.714;9.414;2023-08-21T07:08:28;7.93;;;5.90;;
76656;SDS011;65576;47.714;9.414;2023-08-21T07:10:53;8.88;;;5.70;;
76656;SDS011;65576;47.714;9.414;2023-08-21T07:13:19;7.22;;;5.53;;
76656;SDS011;65576;47.714;9.414;2023-08-21T07:15:45;10.68;;;5.82;;
76656;SDS011;65576;47.714;9.414;2023-08-21T07:18:11;7.78;;;5.93;;
76656;SDS011;65576;47.714;9.414;2023-08-21T07:20:36;8.15;;;5.47;;
76656;SDS011;65576;47.714;9.414;2023-08-21T07:23:01;8.95;;;6.25;;
76656;SDS011;65576;47.714;9.414;2023-08-21T07:25:27;9.55;;;6.72;;
76656;SDS011;65576;47.714;9.414;2023-08-21T07:27:53;10.73;;;6.55;;
76656;SDS011;65576;47.714;9.414;2023-08-21T07:30:19;10.75;;;6.35;;
76656;SDS011;65576;47.714;9.414;2023-08-21T07:32:45;9.38;;;6.50;;
76656;SDS011;65576;47.714;9.414;2023-08-21T07:35:10;7.32;;;5.65;;
76656;SDS011;65576;47.714;9.414;2023-08-21T07:37:35;7.25;;;5.43;;
76656;SDS011;65576;47.714;9.414;2023-08-21T07:40:01;8.63;;;6.18;;
76656;SDS011;65576;47.714;9.414;2023-08-21T07:42:27;11.75;;;6.25;;
76656;SDS011;65576;47.714;9.414;2023-08-21T07:44:52;8.07;;;5.82;;
76656;SDS011;65576;47.714;9.414;2023-08-21T07:47:17;10.25;;;6.40;;
76656;SDS011;65576;47.714;9.414;2023-08-21T07:49:43;7.90;;;5.95;;
76656;SDS011;65576;47.714;9.414;2023-08-21T07:52:08;13.13;;;5.72;;
76656;SDS011;65576;47.714;9.414;2023-08-21T07:54:33;9.23;;;6.30;;
76656;SDS011;65576;47.714;9.414;2023-08-21T07:56:58;6.75;;;5.70;;
76656;SDS011;65576;47.714;9.414;2023-08-21T07:59:24;7.88;;;5.80;;
76656;SDS011;65576;47.714;9.414;2023-08-21T08:01:50;7.32;;;6.00;;
76656;SDS011;65576;47.714;9.414;2023-08-21T08:04:15;8.27;;;5.80;;
76656;SDS011;65576;47.714;9.414;2023-08-21T08:06:41;9.48;;;5.72;;
76656;SDS011;65576;47.714;9.414;2023-08-21T08:09:06;10.27;;;5.68;;
76656;SDS011;65576;47.714;9.414;2023-08-21T08:11:32;9.02;;;6.07;;
76656;SDS011;65576;47.714;9.414;2023-08-21T08:13:58;8.20;;;5.68;;
76656;SDS011;65576;47.714;9.414;2023-08-21T08:16:23;6.75;;;5.07;;
76656;SDS011;65576;47.714;9.414;2023-08-21T08:18:48;5.95;;;5.20;;
76656;SDS011;65576;47.714;9.414;2023-08-21T08:21:14;11.30;;;6.03;;
76656;SDS011;65576;47.714;9.414;2023-08-21T08:23:39;7.32;;;5.40;;
76656;SDS011;65576;47.714;9.414;2023-08-21T08:26:04;7.90;;;5.82;;
76656;SDS011;65576;47.714;9.414;2023-08-21T08:28:30;10.85;;;5.95;;
76656;SDS011;65576;47.714;9.414;2023-08-21T08:30:55;6.85;;;5.50;;
76656;SDS011;65576;47.714;9.414;2023-08-21T08:33:20;9.55;;;5.55;;
76656;SDS011;65576;47.714;9.414;2023-08-21T08:35:46;10.57;;;5.78;;
76656;SDS011;65576;47.714;9.414;2023-08-21T08:38:11;9.80;;;6.38;;
76656;SDS011;65576;47.714;9.414;2023-08-21T08:40:37;6.65;;;5.18;;
76656;SDS011;65576;47.714;9.414;2023-08-21T08:43:08;6.95;;;5.55;;
76656;SDS011;65576;47.714;9.414;2023-08-21T08:45:34;10.35;;;7.20;;
76656;SDS011;65576;47.714;9.414;2023-08-21T08:47:59;8.57;;;5.60;;
76656;SDS011;65576;47.714;9.414;2023-08-21T08:50:29;7.32;;;4.93;;
76656;SDS011;65576;47.714;9.414;2023-08-21T08:52:56;12.18;;;5.97;;
76656;SDS011;65576;47.714;9.414;2023-08-21T08:55:22;7.03;;;5.03;;
76656;SDS011;65576;47.714;9.414;2023-08-21T08:57:47;10.15;;;6.00;;
76656;SDS011;65576;47.714;9.414;2023-08-21T09:00:13;8.93;;;5.80;;
76656;SDS011;65576;47.714;9.414;2023-08-21T09:02:38;9.00;;;6.00;;
76656;SDS011;65576;47.714;9.414;2023-08-21T09:05:04;7.38;;;5.78;;
76656;SDS011;65576;47.714;9.414;2023-08-21T09:07:29;8.63;;;5.57;;
76656;SDS011;65576;47.714;9.414;2023-08-21T09:09:55;8.32;;;5.55;;
76656;SDS011;65576;47.714;9.414;2023-08-21T09:12:20;8.80;;;6.00;;
76656;SDS011;65576;47.714;9.414;2023-08-21T09:14:46;13.02;;;6.03;;
76656;SDS011;65576;47.714;9.414;2023-08-21T09:17:12;10.93;;;6.60;;
76656;SDS011;65576;47.714;9.414;2023-08-21T09:19:37;19.42;;;6.20;;
76656;SDS011;65576;47.714;9.414;2023-08-21T09:22:13;8.82;;;6.30;;
76656;SDS011;65576;47.714;9.414;2023-08-21T09:24:40;9.27;;;5.60;;
76656;SDS011;65576;47.714;9.414;2023-08-21T09:27:12;7.57;;;5.45;;
76656;SDS011;65576;47.714;9.414;2023-08-21T09:29:39;7.63;;;5.68;;
76656;SDS011;65576;47.714;9.414;2023-08-21T09:32:08;8.25;;;5.60;;
76656;SDS011;65576;47.714;9.414;2023-08-21T09:34:34;8.07;;;5.70;;
76656;SDS011;65576;47.714;9.414;2023-08-21T09:37:01;9.10;;;5.60;;
76656;SDS011;65576;47.714;9.414;2023-08-21T09:39:32;10.77;;;6.10;;
76656;SDS011;65576;47.714;9.414;2023-08-21T09:41:58;10.80;;;6.63;;
76656;SDS011;65576;47.714;9.414;2023-08-21T09:44:24;7.43;;;5.82;;
76656;SDS011;65576;47.714;9.414;2023-08-21T09:46:49;9.23;;;5.50;;
76656;SDS011;65576;47.714;9.414;2023-08-21T09:49:15;10.88;;;5.88;;
76656;SDS011;65576;47.714;9.414;2023-08-21T09:51:42;8.55;;;5.68;;
76656;SDS011;65576;47.714;9.414;2023-08-21T09:54:09;8.15;;;5.60;;
76656;SDS011;65576;47.714;9.414;2023-08-21T09:56:36;7.45;;;5.18;;
76656;SDS011;65576;47.714;9.414;2023-08-21T09:59:01;6.20;;;5.13;;
76656;SDS011;65576;47.714;9.414;2023-08-21T10:01:27;10.07;;;5.43;;
76656;SDS011;65576;47.714;9.414;2023-08-21T10:03:53;7.45;;;5.07;;
76656;SDS011;65576;47.714;9.414;2023-08-21T10:06:19;9.70;;;5.47;;
76656;SDS011;65576;47.714;9.414;2023-08-21T10:08:45;11.10;;;5.20;;
76656;SDS011;65576;47.714;9.414;2023-08-21T10:11:11;7.00;;;5.45;;
76656;SDS011;65576;47.714;9.414;2023-08-21T10:13:37;8.23;;;5.90;;
76656;SDS011;65576;47.714;9.414;2023-08-21T10:16:03;6.50;;;4.95;;
76656;SDS011;65576;47.714;9.414;2023-08-21T10:18:33;6.88;;;5.53;;
76656;SDS011;65576;47.714;9.414;2023-08-21T10:21:14;9.43;;;5.38;;
76656;SDS011;65576;47.714;9.414;2023-08-21T10:23:41;7.82;;;4.93;;
76656;SDS011;65576;47.714;9.414;2023-08-21T10:26:09;7.35;;;5.30;;
76656;SDS011;65576;47.714;9.414;2023-08-21T10:28:48;8.55;;;5.25;;
76656;SDS011;65576;47.714;9.414;2023-08-21T10:31:34;10.23;;;5.38;;
76656;SDS011;65576;47.714;9.414;2023-08-21T10:34:06;8.25;;;5.72;;
76656;SDS011;65576;47.714;9.414;2023-08-21T10:36:39;10.95;;;4.88;;
76656;SDS011;65576;47.714;9.414;2023-08-21T10:49:49;8.23;;;5.38;;
76656;SDS011;65576;47.714;9.414;2023-08-21T10:54:54;7.63;;;4.97;;
76656;SDS011;65576;47.714;9.414;2023-08-21T10:57:22;12.88;;;4.80;;
76656;SDS011;65576;47.714;9.414;2023-08-21T10:59:51;7.53;;;4.97;;
76656;SDS011;65576;47.714;9.414;2023-08-21T11:02:17;8.32;;;5.35;;
76656;SDS011;65576;47.714;9.414;2023-08-21T11:04:43;8.15;;;5.28;;
76656;SDS011;65576;47.714;9.414;2023-08-21T11:07:09;9.73;;;5.43;;
76656;SDS011;65576;47.714;9.414;2023-08-21T11:09:35;6.40;;;5.15;;
76656;SDS011;65576;47.714;9.414;2023-08-21T11:12:05;7.63;;;5.38;;
76656;SDS011;65576;47.714;9.414;2023-08-21T11:14:31;5.63;;;4.90;;
76656;SDS011;65576;47.714;9.414;2023-08-21T11:16:57;9.30;;;4.63;;
76656;SDS011;65576;47.714;9.414;2023-08-21T11:19:24;7.15;;;4.68;;
76656;SDS011;65576;47.714;9.414;2023-08-21T11:21:52;7.75;;;5.40;;
76656;SDS011;65576;47.714;9.414;2023-08-21T11:24:18;7.00;;;5.07;;
76656;SDS011;65576;47.714;9.414;2023-08-21T11:26:43;6.40;;;5.57;;
76656;SDS011;65576;47.714;9.414;2023-08-21T11:29:08;7.00;;;5.20;;
76656;SDS011;65576;47.714;9.414;2023-08-21T11:31:34;6.47;;;4.55;;
76656;SDS011;65576;47.714;9.414;2023-08-21T11:33:59;11.95;;;4.70;;
76656;SDS011;65576;47.714;9.414;2023-08-21T11:36:24;7.45;;;5.10;;
76656;SDS011;65576;47.714;9.414;2023-08-21T11:38:59;11.63;;;5.32;;
76656;SDS011;65576;47.714;9.414;2023-08-21T11:41:25;7.18;;;5.00;;
76656;SDS011;65576;47.714;9.414;2023-08-21T11:43:51;8.85;;;5.40;;
76656;SDS011;65576;47.714;9.414;2023-08-21T11:46:17;7.35;;;5.10;;
76656;SDS011;65576;47.714;9.414;2023-08-21T11:48:44;8.43;;;5.03;;
76656;SDS011;65576;47.714;9.414;2023-08-21T11:51:10;8.55;;;4.90;;
76656;SDS011;65576;47.714;9.414;2023-08-21T11:53:39;12.63;;;5.68;;
76656;SDS011;65576;47.714;9.414;2023-08-21T11:56:12;8.93;;;5.30;;
76656;SDS011;65576;47.714;9.414;2023-08-21T11:58:44;8.02;;;4.93;;
76656;SDS011;65576;47.714;9.414;2023-08-21T12:01:10;6.65;;;4.65;;
76656;SDS011;65576;47.714;9.414;2023-08-21T12:03:36;9.18;;;4.90;;
76656;SDS011;65576;47.714;9.414;2023-08-21T12:06:04;6.75;;;4.40;;
76656;SDS011;65576;47.714;9.414;2023-08-21T12:08:30;7.68;;;5.45;;
76656;SDS011;65576;47.714;9.414;2023-08-21T12:10:56;10.05;;;5.15;;
76656;SDS011;65576;47.714;9.414;2023-08-21T12:13:21;6.35;;;5.05;;
76656;SDS011;65576;47.714;9.414;2023-08-21T12:15:46;8.38;;;4.95;;
76656;SDS011;65576;47.714;9.414;2023-08-21T12:18:12;10.75;;;4.90;;
76656;SDS011;65576;47.714;9.414;2023-08-21T12:20:37;6.00;;;4.63;;
76656;SDS011;65576;47.714;9.414;2023-08-21T12:23:03;5.63;;;4.90;;
76656;SDS011;65576;47.714;9.414;2023-08-21T12:25:28;6.45;;;4.97;;
76656;SDS011;65576;47.714;9.414;2023-08-21T12:27:53;6.88;;;4.97;;
76656;SDS011;65576;47.714;9.414;2023-08-21T12:30:18;7.47;;;4.53;;
76656;SDS011;65576;47.714;9.414;2023-08-21T12:32:44;5.70;;;4.75;;
76656;SDS011;65576;47.714;9.414;2023-08-21T12:35:09;7.78;;;4.75;;
76656;SDS011;65576;47.714;9.414;2023-08-21T12:37:37;6.90;;;5.15;;
76656;SDS011;65576;47.714;9.414;2023-08-21T12:40:02;7.38;;;5.63;;
76656;SDS011;65576;47.714;9.414;2023-08-21T12:42:28;8.77;;;5.45;;
76656;SDS011;65576;47.714;9.414;2023-08-21T12:44:53;9.02;;;5.13;;
76656;SDS011;65576;47.714;9.414;2023-08-21T12:47:18;6.75;;;4.88;;
76656;SDS011;65576;47.714;9.414;2023-08-21T12:49:43;6.45;;;4.65;;
76656;SDS011;65576;47.714;9.414;2023-08-21T12:52:09;6.22;;;4.90;;
76656;SDS011;65576;47.714;9.414;2023-08-21T12:54:34;9.05;;;5.05;;
76656;SDS011;65576;47.714;9.414;2023-08-21T12:56:59;5.55;;;4.13;;
76656;SDS011;65576;47.714;9.414;2023-08-21T12:59:25;11.77;;;5.10;;
76656;SDS011;65576;47.714;9.414;2023-08-21T13:01:50;7.47;;;4.82;;
76656;SDS011;65576;47.714;9.414;2023-08-21T13:04:15;7.72;;;5.05;;
76656;SDS011;65576;47.714;9.414;2023-08-21T13:06:41;10.55;;;5.18;;
76656;SDS011;65576;47.714;9.414;2023-08-21T13:09:07;9.88;;;4.88;;
76656;SDS011;65576;47.714;9.414;2023-08-21T13:11:32;13.30;;;5.32;;
76656;SDS011;65576;47.714;9.414;2023-08-21T13:13:57;7.63;;;4.82;;
76656;SDS011;65576;47.714;9.414;2023-08-21T13:16:23;6.72;;;4.65;;
76656;SDS011;65576;47.714;9.414;2023-08-21T13:18:48;10.65;;;4.88;;
76656;SDS011;65576;47.714;9.414;2023-08-21T13:21:13;10.40;;;5.18;;
76656;SDS011;65576;47.714;9.414;2023-08-21T13:23:39;11.07;;;5.25;;
76656;SDS011;65576;47.714;9.414;2023-08-21T13:26:04;8.07;;;4.60;;
76656;SDS011;65576;47.714;9.414;2023-08-21T13:28:29;6.45;;;4.20;;
76656;SDS011;65576;47.714;9.414;2023-08-21T13:30:56;6.35;;;4.57;;
76656;SDS011;65576;47.714;9.414;2023-08-21T13:33:21;6.57;;;4.88;;
76656;SDS011;65576;47.714;9.414;2023-08-21T13:35:47;7.55;;;4.47;;
76656;SDS011;65576;47.714;9.414;2023-08-21T13:38:12;5.82;;;4.45;;
76656;SDS011;65576;47.714;9.414;2023-08-21T13:40:38;7.88;;;4.68;;
76656;SDS011;65576;47.714;9.414;2023-08-21T13:43:04;5.70;;;4.45;;
76656;SDS011;65576;47.714;9.414;2023-08-21T13:45:29;6.10;;;4.03;;
76656;SDS011;65576;47.714;9.414;2023-08-21T13:47:55;6.85;;;4.47;;
76656;SDS011;65576;47.714;9.414;2023-08-21T13:50:20;6.97;;;4.53;;
76656;SDS011;65576;47.714;9.414;2023-08-21T13:52:46;9.10;;;4.97;;
76656;SDS011;65576;47.714;9.414;2023-08-21T13:55:12;8.68;;;4.28;;
76656;SDS011;65576;47.714;9.414;2023-08-21T13:57:38;8.27;;;4.55;;
76656;SDS011;65576;47.714;9.414;2023-08-21T14:00:04;6.20;;;4.22;;
76656;SDS011;65576;47.714;9.414;2023-08-21T14:02:36;4.82;;;3.70;;
76656;SDS011;65576;47.714;9.414;2023-08-21T14:05:02;5.50;;;3.65;;
76656;SDS011;65576;47.714;9.414;2023-08-21T14:07:29;6.97;;;3.95;;
76656;SDS011;65576;47.714;9.414;2023-08-21T14:09:54;5.75;;;3.67;;
76656;SDS011;65576;47.714;9.414;2023-08-21T14:12:20;10.05;;;3.95;;
76656;SDS011;65576;47.714;9.414;2023-08-21T14:14:45;6.35;;;4.20;;
76656;SDS011;65576;47.714;9.414;2023-08-21T14:17:10;5.75;;;3.40;;
76656;SDS011;65576;47.714;9.414;2023-08-21T14:19:36;7.45;;;4.03;;
76656;SDS011;65576;47.714;9.414;2023-08-21T14:22:01;4.47;;;3.83;;
76656;SDS011;65576;47.714;9.414;2023-08-21T14:24:28;10.43;;;3.58;;
76656;SDS011;65576;47.714;9.414;2023-08-21T14:26:53;7.88;;;3.55;;
76656;SDS011;65576;47.714;9.414;2023-08-21T14:29:18;3.20;;;2.90;;
76656;SDS011;65576;47.714;9.414;2023-08-21T14:31:44;7.57;;;3.80;;
76656;SDS011;65576;47.714;9.414;2023-08-21T14:34:11;7.75;;;3.78;;
76656;SDS011;65576;47.714;9.414;2023-08-21T14:36:37;6.35;;;3.08;;
76656;SDS011;65576;47.714;9.414;2023-08-21T14:39:02;4.47;;;3.00;;
76656;SDS011;65576;47.714;9.414;2023-08-21T14:41:28;5.05;;;3.33;;
76656;SDS011;65576;47.714;9.414;2023-08-21T14:43:54;4.38;;;3.08;;
76656;SDS011;65576;47.714;9.414;2023-08-21T14:46:19;4.68;;;2.88;;
76656;SDS011;65576;47.714;9.414;2023-08-21T14:48:44;4.22;;;2.90;;
76656;SDS011;65576;47.714;9.414;2023-08-21T14:51:09;4.38;;;2.55;;
76656;SDS011;65576;47.714;9.414;2023-08-21T14:53:35;4.75;;;2.88;;